Time;durP1;ratioP1;P1;durP2;ratioP2;P2;SDS_P1;SDS_P2;PMS_P1;PMS_P2;Temp;Humidity;BMP_temperature;BMP_pressure;BME280_temperature;BME280_humidity;BME280_pressure;Samples;Min_cycle;Max_cycle;Signal;HPM_P1;HPM_P2
2023/12/31 00:00:28;;;;;;;22.40;9.70;;;;;;;4.07;83.45;100598.27;111685;1207;100631;-68
2023/12/31 00:02:53;;;;;;;31.50;11.30;;;;;;;4.06;83.59;100599.87;111539;1208;140381;-69
2023/12/31 00:05:19;;;;;;;30.30;12.20;;;;;;;4.03;83.54;100595.69;111709;1207;99051;-68
2023/12/31 00:07:45;;;;;;;33.00;12.50;;;;;;;4.05;83.55;100593.86;111375;1210;139083;-68
2023/12/31 00:10:11;;;;;;;28.40;11.60;;;;;;;4.04;83.68;100595.67;111587;1211;100037;-68
2023/12/31 00:12:36;;;;;;;29.90;12.00;;;;;;;4.04;83.63;100596.91;111688;1208;99569;-68
2023/12/31 00:15:04;;;;;;;30.20;11.80;;;;;;;4.02;83.82;100594.64;111548;1212;140298;-69
2023/12/31 00:17:30;;;;;;;30.50;11.50;;;;;;;3.99;83.83;100593.11;111666;1206;98951;-69
2023/12/31 00:19:55;;;;;;;33.10;11.20;;;;;;;3.97;83.92;100590.84;111541;1206;139974;-69
2023/12/31 00:22:20;;;;;;;34.70;12.10;;;;;;;3.97;83.92;100594.56;111670;1211;98968;-69
2023/12/31 00:24:46;;;;;;;31.10;11.00;;;;;;;3.95;83.81;100594.23;111658;1206;100604;-69
2023/12/31 00:27:11;;;;;;;31.30;10.90;;;;;;;3.93;83.92;100592.50;111579;1211;139103;-68
2023/12/31 00:29:36;;;;;;;33.40;11.50;;;;;;;3.94;83.91;100595.85;111656;1209;99042;-69
2023/12/31 00:32:01;;;;;;;30.30;11.10;;;;;;;3.94;84.16;100594.06;111558;1206;138944;-68
2023/12/31 00:34:27;;;;;;;33.50;11.00;;;;;;;3.97;84.35;100595.26;111700;1207;99021;-69
2023/12/31 00:36:52;;;;;;;35.60;13.10;;;;;;;3.98;84.22;100594.36;111659;1206;98952;-69
2023/12/31 00:39:17;;;;;;;29.70;10.80;;;;;;;3.98;84.22;100595.07;111589;1208;139341;-68
2023/12/31 00:41:42;;;;;;;33.50;10.00;;;;;;;3.98;84.16;100601.60;111651;1206;98955;-68
2023/12/31 00:44:08;;;;;;;29.10;11.70;;;;;;;3.98;84.26;100600.90;111531;1211;139486;-69
2023/12/31 00:46:33;;;;;;;33.00;10.90;;;;;;;3.97;84.36;100604.96;111563;1210;112504;-68
2023/12/31 00:48:59;;;;;;;28.00;11.70;;;;;;;3.98;84.30;100608.33;111496;1206;99651;-68
2023/12/31 00:51:24;;;;;;;29.70;11.00;;;;;;;3.99;84.29;100602.83;111531;1206;138820;-68
2023/12/31 00:53:50;;;;;;;26.20;10.90;;;;;;;3.98;84.34;100604.61;111574;1212;97849;-69
2023/12/31 00:56:15;;;;;;;27.00;11.30;;;;;;;3.96;84.29;100606.23;111552;1209;139269;-69
2023/12/31 00:58:40;;;;;;;26.20;11.20;;;;;;;3.95;84.34;100603.77;111512;1210;107332;-68
2023/12/31 01:01:07;;;;;;;28.20;11.80;;;;;;;3.94;84.44;100605.92;111634;1206;98952;-69
2023/12/31 01:03:33;;;;;;;26.80;11.00;;;;;;;3.95;84.50;100606.96;111561;1209;138771;-68
2023/12/31 01:06:06;;;;;;;27.60;12.00;;;;;;;3.96;84.52;100604.64;111670;1206;100454;-68
2023/12/31 01:08:32;;;;;;;35.80;12.70;;;;;;;3.96;84.57;100607.82;111519;1209;139431;-68
2023/12/31 01:10:57;;;;;;;32.90;12.70;;;;;;;3.95;84.80;100607.84;111584;1211;99082;-68
2023/12/31 01:13:22;;;;;;;33.10;11.60;;;;;;;3.96;84.70;100613.31;111608;1212;139662;-69
2023/12/31 01:15:47;;;;;;;29.50;12.20;;;;;;;3.95;84.56;100610.50;111612;1206;99034;-69
2023/12/31 01:18:13;;;;;;;34.00;12.70;;;;;;;3.93;84.64;100607.00;111710;1206;99034;-68
2023/12/31 01:20:39;;;;;;;36.20;12.80;;;;;;;3.91;84.73;100605.07;111467;1210;138970;-69
2023/12/31 01:23:04;;;;;;;34.90;13.10;;;;;;;3.90;84.68;100610.22;111664;1206;98958;-68
2023/12/31 01:25:29;;;;;;;29.90;12.00;;;;;;;3.89;84.51;100614.30;111534;1211;138982;-68
2023/12/31 01:27:57;;;;;;;31.20;11.60;;;;;;;3.87;84.75;100615.92;111638;1212;99002;-69
2023/12/31 01:30:23;;;;;;;31.10;12.00;;;;;;;3.86;84.83;100621.41;111527;1212;99006;-68
2023/12/31 01:32:50;;;;;;;32.70;11.70;;;;;;;3.89;84.82;100622.09;111452;1206;138797;-68
2023/12/31 01:35:16;;;;;;;31.80;12.80;;;;;;;3.89;84.84;100618.38;111719;1209;98984;-69
2023/12/31 01:37:41;;;;;;;27.60;11.80;;;;;;;3.90;85.15;100615.88;111401;1206;140568;-68
2023/12/31 01:40:07;;;;;;;28.80;11.90;;;;;;;3.92;85.14;100615.32;111644;1206;99089;-68
2023/12/31 01:42:33;;;;;;;33.60;12.30;;;;;;;3.93;84.98;100613.36;111676;1206;99133;-69
2023/12/31 01:44:58;;;;;;;32.60;11.90;;;;;;;3.96;85.14;100616.66;111433;1212;139259;-68
2023/12/31 01:47:24;;;;;;;28.20;11.10;;;;;;;3.98;85.10;100618.05;111425;1209;99053;-68
2023/12/31 01:49:50;;;;;;;35.60;12.40;;;;;;;3.99;85.19;100619.26;111432;1212;139272;-68
2023/12/31 01:52:16;;;;;;;40.80;11.70;;;;;;;4.02;85.08;100622.77;111629;1206;99022;-69
2023/12/31 01:54:41;;;;;;;26.60;10.70;;;;;;;4.02;85.16;100622.23;111592;1212;98983;-68
2023/12/31 01:57:09;;;;;;;34.30;12.20;;;;;;;4.04;85.32;100623.78;111664;1210;138763;-68
2023/12/31 01:59:34;;;;;;;32.30;12.60;;;;;;;4.06;85.44;100621.09;111566;1211;112449;-68
2023/12/31 02:01:59;;;;;;;30.30;11.90;;;;;;;4.09;85.50;100623.33;111542;1208;139079;-69
2023/12/31 02:04:33;;;;;;;35.20;14.40;;;;;;;4.11;85.41;100627.02;111675;1212;98945;-68
2023/12/31 02:07:00;;;;;;;29.90;12.80;;;;;;;4.11;85.34;100630.89;111635;1212;99126;-68
2023/12/31 02:09:25;;;;;;;37.10;13.50;;;;;;;4.10;85.38;100625.43;111521;1212;138944;-69
2023/12/31 02:11:50;;;;;;;29.10;12.30;;;;;;;4.13;85.58;100621.14;111740;1212;99040;-69
2023/12/31 02:14:15;;;;;;;35.90;14.00;;;;;;;4.14;85.49;100619.00;111536;1212;139216;-69
2023/12/31 02:16:41;;;;;;;31.40;11.90;;;;;;;4.17;85.59;100620.90;111583;1212;99667;-69
2023/12/31 02:19:06;;;;;;;40.00;13.90;;;;;;;4.19;85.52;100619.80;111721;1212;100273;-69
2023/12/31 02:21:31;;;;;;;27.70;12.10;;;;;;;4.20;85.69;100618.55;111519;1206;138973;-69
2023/12/31 02:23:56;;;;;;;27.20;11.50;;;;;;;4.19;85.68;100621.03;111768;1207;99028;-69
2023/12/31 02:26:24;;;;;;;30.30;11.40;;;;;;;4.19;85.67;100615.91;111548;1211;139058;-69
2023/12/31 02:28:49;;;;;;;32.40;12.10;;;;;;;4.18;85.63;100615.04;111513;1206;99054;-69
2023/12/31 02:31:15;;;;;;;33.20;12.40;;;;;;;4.19;85.72;100617.85;111690;1206;99913;-69
2023/12/31 02:33:43;;;;;;;30.60;11.50;;;;;;;4.19;85.70;100617.85;111545;1210;139050;-69
2023/12/31 02:36:08;;;;;;;38.40;12.30;;;;;;;4.19;85.71;100612.55;111683;1208;112514;-69
2023/12/31 02:38:34;;;;;;;34.30;14.20;;;;;;;4.19;85.76;100612.55;111477;1206;139013;-69
2023/12/31 02:40:59;;;;;;;38.20;14.80;;;;;;;4.20;85.92;100607.92;111718;1207;99101;-68
2023/12/31 02:43:24;;;;;;;31.90;13.60;;;;;;;4.22;85.73;100609.13;111521;1206;138977;-69
2023/12/31 02:45:49;;;;;;;41.00;14.60;;;;;;;4.25;85.70;100604.48;111728;1206;99044;-69
2023/12/31 02:48:15;;;;;;;42.90;15.50;;;;;;;4.27;85.91;100599.67;111665;1206;98995;-69
2023/12/31 02:50:43;;;;;;;46.40;17.90;;;;;;;4.29;86.13;100596.46;111483;1206;139003;-69
2023/12/31 02:53:08;;;;;;;42.70;16.20;;;;;;;4.33;86.19;100598.15;111597;1210;98879;-69
2023/12/31 02:55:34;;;;;;;32.20;15.10;;;;;;;4.34;86.14;100597.77;111608;1206;139113;-69
2023/12/31 02:57:59;;;;;;;38.40;15.30;;;;;;;4.36;86.08;100598.81;111681;1206;98937;-69
2023/12/31 03:00:24;;;;;;;32.10;13.40;;;;;;;4.37;86.04;100599.84;111584;1206;99032;-70
2023/12/31 03:02:49;;;;;;;28.00;11.40;;;;;;;4.39;86.31;100602.81;111597;1212;138807;-69
2023/12/31 03:05:15;;;;;;;26.60;11.30;;;;;;;4.39;86.12;100600.52;111630;1212;99242;-69
2023/12/31 03:07:40;;;;;;;27.20;11.40;;;;;;;4.37;86.04;100599.84;111573;1210;138934;-69
2023/12/31 03:10:06;;;;;;;19.20;10.40;;;;;;;4.36;86.13;100602.52;111652;1206;98944;-69
2023/12/31 03:12:32;;;;;;;24.70;10.10;;;;;;;4.38;86.29;100604.59;111641;1206;99136;-69
2023/12/31 03:14:57;;;;;;;26.40;9.50;;;;;;;4.42;86.35;100608.05;111513;1221;141414;-69
2023/12/31 03:17:23;;;;;;;24.10;9.40;;;;;;;4.44;86.32;100603.07;111470;1206;99035;-69
2023/12/31 03:19:49;;;;;;;24.90;10.60;;;;;;;4.46;86.38;100600.90;111657;1206;138632;-69
2023/12/31 03:22:14;;;;;;;24.60;10.70;;;;;;;4.46;86.27;100597.17;111701;1209;101842;-69
2023/12/31 03:24:43;;;;;;;25.60;10.60;;;;;;;4.48;86.60;100589.55;111646;1206;99004;-69
2023/12/31 03:27:09;;;;;;;20.30;8.70;;;;;;;4.49;86.52;100587.92;111504;1206;139142;-69
2023/12/31 03:29:35;;;;;;;23.60;8.70;;;;;;;4.51;86.55;100592.13;111669;1207;99049;-69
2023/12/31 03:32:00;;;;;;;18.40;8.20;;;;;;;4.53;86.68;100585.02;111546;1206;138685;-69
2023/12/31 03:34:26;;;;;;;18.80;7.70;;;;;;;4.52;86.55;100581.33;111653;1210;99017;-69
2023/12/31 03:36:51;;;;;;;18.60;7.90;;;;;;;4.50;86.30;100579.60;111651;1206;99029;-69
2023/12/31 03:39:16;;;;;;;22.70;8.60;;;;;;;4.48;86.53;100577.34;111664;1206;138672;-69
2023/12/31 03:41:42;;;;;;;18.60;7.60;;;;;;;4.47;86.64;100573.47;111670;1206;98934;-69
2023/12/31 03:44:08;;;;;;;16.00;7.50;;;;;;;4.46;86.70;100572.07;111532;1212;139035;-69
2023/12/31 03:46:34;;;;;;;23.00;7.40;;;;;;;4.46;86.67;100571.36;111631;1212;99361;-69
2023/12/31 03:48:59;;;;;;;20.10;8.20;;;;;;;4.44;86.50;100568.57;111467;1212;98948;-69
2023/12/31 03:51:24;;;;;;;19.90;7.20;;;;;;;4.44;86.63;100562.20;111561;1206;138782;-69
2023/12/31 03:53:49;;;;;;;17.00;6.70;;;;;;;4.42;86.67;100558.17;111662;1206;98934;-69
2023/12/31 03:56:15;;;;;;;23.10;7.80;;;;;;;4.39;86.78;100548.66;111644;1206;139716;-69
2023/12/31 03:58:40;;;;;;;18.30;7.60;;;;;;;4.40;86.56;100555.20;111624;1205;99445;-69
2023/12/31 04:01:05;;;;;;;19.00;7.80;;;;;;;4.38;86.68;100553.99;111654;1207;98934;-69
2023/12/31 04:03:31;;;;;;;19.10;7.20;;;;;;;4.37;86.91;100552.06;111507;1212;138661;-69
2023/12/31 04:05:57;;;;;;;19.80;8.20;;;;;;;4.38;86.93;100545.70;111592;1212;100460;-69
2023/12/31 04:08:22;;;;;;;22.00;8.00;;;;;;;4.38;86.86;100543.20;111504;1212;138948;-69
2023/12/31 04:10:47;;;;;;;18.30;8.60;;;;;;;4.39;86.91;100539.47;111595;1207;98980;-69
2023/12/31 04:13:13;;;;;;;23.50;7.80;;;;;;;4.39;86.95;100535.41;111574;1212;102634;-69
2023/12/31 04:15:38;;;;;;;15.40;7.20;;;;;;;4.38;86.86;100540.73;111594;1206;138739;-69
2023/12/31 04:18:04;;;;;;;15.10;7.20;;;;;;;4.37;87.03;100543.05;111574;1209;98977;-69
2023/12/31 04:20:31;;;;;;;16.70;7.40;;;;;;;4.36;87.15;100543.96;111483;1209;140216;-69
2023/12/31 04:22:56;;;;;;;16.30;7.00;;;;;;;4.33;87.00;100540.48;111670;1206;99381;-69
2023/12/31 04:25:21;;;;;;;19.40;7.00;;;;;;;4.30;86.91;100537.35;111610;1206;100911;-69
2023/12/31 04:27:47;;;;;;;18.50;7.10;;;;;;;4.31;87.03;100534.86;111504;1206;138639;-69
2023/12/31 04:30:15;;;;;;;15.40;6.80;;;;;;;4.31;87.18;100530.09;111670;1209;98990;-69
2023/12/31 04:32:40;;;;;;;16.80;7.20;;;;;;;4.29;87.09;100526.41;111499;1206;139628;-69
2023/12/31 04:35:07;;;;;;;18.20;7.10;;;;;;;4.27;87.12;100522.56;111628;1212;98925;-69
2023/12/31 04:37:32;;;;;;;17.20;7.30;;;;;;;4.26;87.10;100523.30;111533;1208;139917;-69
2023/12/31 04:39:58;;;;;;;17.20;7.30;;;;;;;4.25;87.08;100516.41;111492;1211;99530;-69
2023/12/31 04:42:23;;;;;;;14.60;7.10;;;;;;;4.23;87.01;100514.14;111549;1212;99058;-69
2023/12/31 04:44:49;;;;;;;16.20;7.00;;;;;;;4.19;86.94;100512.44;111589;1206;138599;-69
2023/12/31 04:47:14;;;;;;;20.30;7.40;;;;;;;4.16;87.08;100514.80;111620;1209;99765;-69
2023/12/31 04:49:39;;;;;;;18.00;7.90;;;;;;;4.15;87.34;100513.77;111557;1209;138778;-69
2023/12/31 04:52:05;;;;;;;24.30;7.90;;;;;;;4.15;87.17;100508.98;111633;1210;98986;-69
2023/12/31 04:54:30;;;;;;;17.70;7.90;;;;;;;4.14;87.23;100510.06;111638;1212;99010;-69
2023/12/31 04:56:55;;;;;;;18.10;7.60;;;;;;;4.13;87.20;100504.61;111537;1210;138788;-69
2023/12/31 04:59:21;;;;;;;15.10;7.00;;;;;;;4.11;87.16;100502.52;111629;1210;98924;-69
2023/12/31 05:01:50;;;;;;;21.80;7.60;;;;;;;4.08;87.08;100503.28;111568;1210;139182;-69
2023/12/31 05:04:15;;;;;;;21.90;7.50;;;;;;;4.06;87.32;100501.21;111588;1206;99069;-70
2023/12/31 05:06:40;;;;;;;15.90;7.20;;;;;;;4.06;87.27;100498.39;111626;1209;98656;-69
2023/12/31 05:09:08;;;;;;;18.90;7.10;;;;;;;4.02;87.13;100495.80;111566;1206;138607;-70
2023/12/31 05:11:34;;;;;;;17.20;7.50;;;;;;;4.00;87.22;100495.67;111497;1212;107379;-69
2023/12/31 05:14:00;;;;;;;21.00;7.70;;;;;;;3.97;87.16;100494.50;111453;1208;139550;-69
2023/12/31 05:16:26;;;;;;;13.80;6.50;;;;;;;3.94;87.35;100487.30;111598;1212;100353;-69
2023/12/31 05:18:53;;;;;;;15.50;6.70;;;;;;;3.92;87.25;100483.98;111631;1209;99361;-69
2023/12/31 05:21:19;;;;;;;15.60;7.10;;;;;;;3.90;87.19;100481.01;111472;1209;139806;-69
2023/12/31 05:23:45;;;;;;;14.50;7.00;;;;;;;3.88;87.36;100476.63;111600;1206;98971;-69
2023/12/31 05:26:12;;;;;;;17.20;6.70;;;;;;;3.85;87.30;100471.02;111574;1206;138963;-69
2023/12/31 05:28:37;;;;;;;22.00;7.50;;;;;;;3.79;87.36;100459.66;111772;1208;99429;-70
2023/12/31 05:31:03;;;;;;;18.60;6.90;;;;;;;3.80;87.37;100463.70;111523;1211;98912;-68
2023/12/31 05:33:28;;;;;;;19.60;6.90;;;;;;;3.77;87.33;100462.85;111543;1206;140355;-69
2023/12/31 05:35:53;;;;;;;13.80;6.90;;;;;;;3.75;87.18;100466.61;111605;1210;98964;-69
2023/12/31 05:38:20;;;;;;;21.20;7.20;;;;;;;3.72;87.50;100473.04;111568;1209;138732;-69
2023/12/31 05:40:45;;;;;;;17.80;7.30;;;;;;;3.69;87.62;100468.68;111670;1209;99844;-69
2023/12/31 05:43:11;;;;;;;19.30;7.50;;;;;;;3.67;87.55;100462.70;111644;1206;99057;-69
2023/12/31 05:45:37;;;;;;;17.20;6.60;;;;;;;3.67;87.59;100463.59;111561;1209;141695;-69
2023/12/31 05:48:02;;;;;;;15.30;6.60;;;;;;;3.66;87.47;100454.95;111594;1209;99481;-69
2023/12/31 05:50:27;;;;;;;23.10;7.90;;;;;;;3.66;87.73;100454.25;111517;1206;139021;-69
2023/12/31 05:52:53;;;;;;;16.90;7.80;;;;;;;3.64;87.60;100445.26;111535;1212;111407;-69
2023/12/31 05:55:18;;;;;;;19.60;7.00;;;;;;;3.63;87.56;100445.98;111617;1206;98942;-69
2023/12/31 05:57:43;;;;;;;14.90;6.50;;;;;;;3.61;87.46;100444.08;111497;1206;139451;-69
2023/12/31 06:00:09;;;;;;;20.90;8.30;;;;;;;3.59;87.72;100440.94;111596;1206;98945;-69
2023/12/31 06:02:35;;;;;;;17.80;7.70;;;;;;;3.59;87.69;100444.30;111428;1206;138869;-69
2023/12/31 06:05:01;;;;;;;19.10;7.70;;;;;;;3.57;87.79;100446.98;111653;1207;99035;-69
2023/12/31 06:07:27;;;;;;;23.30;8.00;;;;;;;3.56;87.77;100444.16;111485;1206;138915;-69
2023/12/31 06:09:52;;;;;;;22.80;7.50;;;;;;;3.55;87.67;100452.84;111574;1210;98974;-69
2023/12/31 06:12:17;;;;;;;19.30;7.30;;;;;;;3.55;87.77;100453.73;111598;1211;98985;-69
2023/12/31 06:14:43;;;;;;;25.00;8.80;;;;;;;3.55;87.90;100454.96;111440;1209;138754;-69
2023/12/31 06:17:08;;;;;;;24.90;9.30;;;;;;;3.56;87.84;100454.41;111628;1207;99105;-69
2023/12/31 06:19:33;;;;;;;23.30;8.50;;;;;;;3.57;87.83;100455.64;111434;1210;140676;-69
2023/12/31 06:21:59;;;;;;;19.70;7.60;;;;;;;3.57;87.69;100453.88;111634;1206;98953;-69
2023/12/31 06:24:24;;;;;;;24.00;7.80;;;;;;;3.56;87.73;100453.17;111571;1206;99022;-69
2023/12/31 06:26:49;;;;;;;16.00;7.70;;;;;;;3.55;87.97;100457.62;111508;1206;138965;-69
2023/12/31 06:29:15;;;;;;;21.10;8.70;;;;;;;3.53;88.00;100453.06;111667;1209;99008;-69
2023/12/31 06:31:40;;;;;;;19.10;8.10;;;;;;;3.52;87.94;100455.02;111494;1211;139458;-69
2023/12/31 06:34:05;;;;;;;23.80;8.60;;;;;;;3.49;87.81;100448.88;111674;1209;99338;-69
2023/12/31 06:36:31;;;;;;;21.50;8.50;;;;;;;3.47;88.01;100450.33;111603;1206;99034;-69
2023/12/31 06:38:56;;;;;;;17.50;8.50;;;;;;;3.46;87.95;100444.53;111582;1208;138462;-69
2023/12/31 06:41:22;;;;;;;27.70;10.10;;;;;;;3.45;87.96;100445.27;111623;1206;99007;-69
2023/12/31 06:43:48;;;;;;;20.00;9.00;;;;;;;3.42;87.95;100447.77;111585;1216;138940;-69
2023/12/31 06:46:14;;;;;;;23.00;9.10;;;;;;;3.39;87.87;100452.61;111634;1206;97928;-69
2023/12/31 06:48:40;;;;;;;25.00;8.80;;;;;;;3.36;87.89;100451.58;111666;1205;99019;-69
2023/12/31 06:51:05;;;;;;;22.90;8.40;;;;;;;3.33;87.87;100447.04;111526;1212;138777;-69
2023/12/31 06:53:33;;;;;;;23.90;8.90;;;;;;;3.33;87.86;100442.11;111610;1207;98852;-69
2023/12/31 06:56:03;;;;;;;26.10;9.90;;;;;;;3.33;88.14;100445.64;111550;1209;139174;-69
2023/12/31 06:58:28;;;;;;;21.60;9.60;;;;;;;3.32;88.11;100449.73;111572;1206;100022;-69
2023/12/31 07:00:53;;;;;;;24.50;11.70;;;;;;;3.31;87.96;100452.04;111596;1209;98977;-69
2023/12/31 07:03:19;;;;;;;17.50;9.40;;;;;;;3.30;88.18;100447.81;111620;1206;138672;-69
2023/12/31 07:05:47;;;;;;;22.30;10.50;;;;;;;3.26;87.97;100446.63;111646;1218;99115;-69
2023/12/31 07:08:12;;;;;;;24.50;12.20;;;;;;;3.25;88.10;100443.11;111503;1206;138728;-69
2023/12/31 07:10:38;;;;;;;23.90;11.10;;;;;;;3.25;88.20;100443.48;111585;1209;99440;-69
2023/12/31 07:13:04;;;;;;;27.10;11.20;;;;;;;3.24;87.97;100440.13;111689;1210;98964;-69
2023/12/31 07:15:29;;;;;;;22.30;11.40;;;;;;;3.23;88.12;100432.74;111558;1206;138611;-69
2023/12/31 07:17:54;;;;;;;23.80;10.10;;;;;;;3.23;88.12;100437.86;111729;1208;98954;-69
2023/12/31 07:20:20;;;;;;;24.20;9.90;;;;;;;3.21;88.03;100438.78;111428;1210;139115;-69
2023/12/31 07:22:45;;;;;;;24.90;11.40;;;;;;;3.18;87.92;100440.23;111593;1208;98978;-69
2023/12/31 07:25:10;;;;;;;23.40;10.80;;;;;;;3.15;88.23;100442.76;111725;1209;98976;-69
2023/12/31 07:27:36;;;;;;;26.10;11.50;;;;;;;3.13;87.91;100446.48;111507;1206;139403;-69
2023/12/31 07:30:01;;;;;;;36.60;15.30;;;;;;;3.10;88.14;100451.31;111701;1206;100769;-69
2023/12/31 07:32:26;;;;;;;44.50;20.50;;;;;;;3.08;87.93;100451.87;111493;1209;140997;-70
2023/12/31 07:34:53;;;;;;;58.80;27.30;;;;;;;3.08;88.04;100454.88;111634;1206;99386;-69
2023/12/31 07:37:18;;;;;;;50.90;24.40;;;;;;;3.08;88.24;100451.00;111755;1206;98959;-69
2023/12/31 07:39:43;;;;;;;43.00;19.50;;;;;;;3.10;88.25;100450.97;111652;1209;141161;-68
2023/12/31 07:42:09;;;;;;;30.90;14.70;;;;;;;3.11;88.32;100446.54;111769;1206;99555;-68
2023/12/31 07:44:34;;;;;;;25.80;11.80;;;;;;;3.14;88.38;100451.61;111700;1207;139032;-68
2023/12/31 07:46:59;;;;;;;23.40;11.10;;;;;;;3.16;88.26;100449.27;111765;1206;98967;-68
2023/12/31 07:49:25;;;;;;;21.20;9.80;;;;;;;3.16;88.36;100447.50;111801;1209;99025;-68
2023/12/31 07:51:50;;;;;;;24.60;10.80;;;;;;;3.18;88.35;100446.95;111769;1209;98951;-68
2023/12/31 07:54:16;;;;;;;25.10;10.00;;;;;;;3.20;88.55;100444.97;111732;1206;98945;-68
2023/12/31 07:56:41;;;;;;;23.60;11.00;;;;;;;3.22;88.47;100448.11;111675;1209;138774;-68
2023/12/31 07:59:07;;;;;;;22.90;10.20;;;;;;;3.24;88.32;100449.67;111789;1206;99429;-68
2023/12/31 08:01:32;;;;;;;22.40;9.90;;;;;;;3.25;88.43;100447.02;111644;1209;139068;-67
2023/12/31 08:03:58;;;;;;;25.70;10.60;;;;;;;3.27;88.50;100447.86;111760;1209;99111;-68
2023/12/31 08:06:23;;;;;;;26.50;11.10;;;;;;;3.28;88.56;100444.48;111682;1206;99065;-68
2023/12/31 08:08:49;;;;;;;20.50;10.00;;;;;;;3.31;88.71;100447.27;111657;1209;140562;-68
2023/12/31 08:11:14;;;;;;;28.00;10.10;;;;;;;3.34;88.62;100442.79;111663;1206;99472;-68
2023/12/31 08:13:39;;;;;;;18.80;8.50;;;;;;;3.36;88.64;100439.94;111577;1209;139330;-68
2023/12/31 08:16:05;;;;;;;23.10;9.20;;;;;;;3.39;88.53;100442.17;111802;1206;98981;-68
2023/12/31 08:18:31;;;;;;;23.40;9.20;;;;;;;3.41;88.60;100444.96;111609;1206;98947;-68
2023/12/31 08:20:57;;;;;;;24.20;9.50;;;;;;;3.43;88.61;100443.16;111550;1209;139051;-68
2023/12/31 08:23:22;;;;;;;24.30;9.10;;;;;;;3.44;88.60;100442.62;111765;1209;99084;-68
2023/12/31 08:25:48;;;;;;;19.90;8.90;;;;;;;3.46;88.67;100443.12;111719;1209;138779;-68
2023/12/31 08:28:13;;;;;;;24.10;9.80;;;;;;;3.47;88.58;100445.39;111881;1206;97584;-68
2023/12/31 08:30:38;;;;;;;21.10;9.40;;;;;;;3.49;88.58;100443.60;111726;1210;98883;-68
2023/12/31 08:33:04;;;;;;;23.50;9.90;;;;;;;3.49;88.69;100444.64;111652;1206;139060;-68
2023/12/31 08:35:30;;;;;;;20.40;10.00;;;;;;;3.52;88.67;100445.84;111805;1206;99040;-68
2023/12/31 08:37:55;;;;;;;27.50;9.70;;;;;;;3.54;88.66;100443.15;111622;1208;140196;-68
2023/12/31 08:40:20;;;;;;;25.90;9.70;;;;;;;3.55;88.81;100444.36;111826;1209;98931;-68
2023/12/31 08:42:45;;;;;;;25.70;10.20;;;;;;;3.54;88.70;100444.20;111628;1206;114688;-68
2023/12/31 08:45:13;;;;;;;23.60;10.50;;;;;;;3.55;88.63;100447.71;111655;1206;139015;-67
2023/12/31 08:47:39;;;;;;;27.50;9.90;;;;;;;3.56;88.92;100446.64;111761;1205;99012;-67
2023/12/31 08:50:09;;;;;;;24.80;11.20;;;;;;;3.57;88.80;100448.39;111706;1206;138590;-68
2023/12/31 08:52:45;;;;;;;26.20;11.00;;;;;;;3.57;89.01;100443.97;111943;1206;112711;-68
2023/12/31 08:55:13;;;;;;;28.40;11.30;;;;;;;3.57;88.86;100436.73;111721;1208;99470;-68
2023/12/31 08:57:42;;;;;;;27.80;10.70;;;;;;;3.60;88.94;100438.80;111632;1206;138814;-69
2023/12/31 09:00:09;;;;;;;24.10;10.70;;;;;;;3.62;88.88;100433.81;111787;1206;98641;-68
2023/12/31 09:02:35;;;;;;;31.30;11.30;;;;;;;3.65;88.79;100437.47;111578;1206;138863;-68
2023/12/31 09:05:01;;;;;;;23.00;11.70;;;;;;;3.67;88.81;100438.48;111727;1209;99264;-68
2023/12/31 09:07:26;;;;;;;26.30;11.00;;;;;;;3.69;88.88;100430.86;111676;1209;138776;-68
2023/12/31 09:09:51;;;;;;;27.80;11.80;;;;;;;3.72;88.98;100429.21;111733;1206;99021;-68
2023/12/31 09:12:17;;;;;;;28.70;12.00;;;;;;;3.75;88.86;100427.21;111798;1206;99002;-68
2023/12/31 09:14:42;;;;;;;25.00;10.90;;;;;;;3.78;88.99;100434.05;111576;1210;141831;-68
2023/12/31 09:17:08;;;;;;;27.20;12.80;;;;;;;3.82;88.99;100429.38;113048;1209;97370;-69
2023/12/31 09:19:35;;;;;;;34.50;13.30;;;;;;;3.85;88.94;100426.50;113064;1206;140199;-69
2023/12/31 09:22:04;;;;;;;33.60;12.80;;;;;;;3.87;89.11;100423.09;113131;1205;112503;-69
2023/12/31 09:24:31;;;;;;;28.90;12.80;;;;;;;3.90;89.16;100416.67;113087;1206;98474;-69
2023/12/31 09:26:58;;;;;;;26.00;12.20;;;;;;;3.93;89.15;100413.77;112926;1206;140450;-68
2023/12/31 09:29:23;;;;;;;34.00;13.30;;;;;;;3.95;89.08;100413.73;113157;1205;96964;-68
2023/12/31 09:31:49;;;;;;;34.20;14.10;;;;;;;3.97;88.98;100409.45;112007;1205;138932;-70
2023/12/31 09:34:14;;;;;;;30.00;12.70;;;;;;;4.01;89.28;100405.67;111761;1206;101558;-69
2023/12/31 09:36:40;;;;;;;28.70;13.00;;;;;;;4.04;89.22;100404.00;111691;1212;98912;-70
2023/12/31 09:39:05;;;;;;;30.50;12.40;;;;;;;4.06;89.24;100404.13;111669;1206;138962;-70
2023/12/31 09:41:31;;;;;;;40.90;15.10;;;;;;;4.10;89.31;100397.53;111674;1206;99007;-70
2023/12/31 09:43:56;;;;;;;25.40;11.90;;;;;;;4.12;89.15;100391.46;111583;1209;140433;-71
2023/12/31 09:46:22;;;;;;;32.90;13.70;;;;;;;4.13;89.31;100389.48;111774;1206;99007;-71
2023/12/31 09:48:50;;;;;;;29.20;12.90;;;;;;;4.15;89.25;100391.04;111821;1206;100801;-70
2023/12/31 09:51:17;;;;;;;26.50;13.00;;;;;;;4.17;89.35;100387.63;111742;1206;139092;-70
2023/12/31 09:53:45;;;;;;;26.10;13.40;;;;;;;4.19;89.44;100384.07;111823;1206;99435;-69
2023/12/31 09:56:11;;;;;;;27.30;13.30;;;;;;;4.22;89.39;100378.34;111757;1206;139015;-68
2023/12/31 09:58:37;;;;;;;30.10;13.60;;;;;;;4.24;89.40;100374.06;111700;1210;99037;-71
2023/12/31 10:01:03;;;;;;;28.90;13.50;;;;;;;4.27;89.24;100369.22;111266;1209;99221;-70
2023/12/31 10:03:29;;;;;;;37.20;13.40;;;;;;;4.30;89.62;100367.04;111197;1211;138740;-68
2023/12/31 10:05:56;;;;;;;26.10;12.30;;;;;;;4.32;89.56;100364.86;111664;1206;99002;-70
2023/12/31 10:08:21;;;;;;;33.00;15.30;;;;;;;4.33;89.37;100359.88;111162;1206;140498;-73
2023/12/31 10:10:48;;;;;;;31.80;14.20;;;;;;;4.35;89.55;100355.41;111562;1206;99337;-73
2023/12/31 10:13:17;;;;;;;27.30;13.00;;;;;;;4.37;89.47;100351.12;111675;1205;99589;-71
2023/12/31 10:15:42;;;;;;;23.80;12.20;;;;;;;4.38;89.56;100339.94;111549;1209;138989;-71
2023/12/31 10:18:08;;;;;;;31.30;13.00;;;;;;;4.40;89.48;100336.20;111718;1209;99701;-71
2023/12/31 10:20:36;;;;;;;22.30;12.30;;;;;;;4.40;89.43;100331.77;111676;1209;140083;-71
2023/12/31 10:23:01;;;;;;;26.60;12.90;;;;;;;4.43;89.47;100329.94;111706;1210;99756;-71
2023/12/31 10:25:28;;;;;;;21.30;11.80;;;;;;;4.45;89.70;100325.46;111760;1206;98960;-71
2023/12/31 10:27:54;;;;;;;29.90;13.00;;;;;;;4.47;89.54;100326.30;111787;1206;99118;-71
2023/12/31 10:30:20;;;;;;;26.10;13.20;;;;;;;4.49;89.58;100325.02;111773;1206;99051;-73
2023/12/31 10:32:45;;;;;;;25.00;11.60;;;;;;;4.51;89.57;100325.48;111534;1206;139182;-71
2023/12/31 10:35:11;;;;;;;26.30;13.50;;;;;;;4.53;89.51;100321.02;111689;1206;99136;-72
2023/12/31 10:37:36;;;;;;;32.30;12.90;;;;;;;4.55;89.68;100319.72;111686;1209;139556;-70
2023/12/31 10:40:22;;;;;;;31.50;13.10;;;;;;;4.58;89.65;100316.12;111771;1208;98414;-70
2023/12/31 10:42:55;;;;;;;29.70;13.50;;;;;;;4.62;89.67;100310.36;111868;1208;99577;-70
2023/12/31 10:45:22;;;;;;;27.90;12.10;;;;;;;4.64;89.59;100303.77;111509;1206;138675;-69
2023/12/31 10:47:53;;;;;;;22.10;11.30;;;;;;;4.67;89.70;100296.26;111740;1210;98961;-70
2023/12/31 10:50:21;;;;;;;;;;;;;;;4.70;89.73;100297.42;111579;1206;139385;-70
2023/12/31 10:52:50;;;;;;;29.30;12.80;;;;;;;4.72;89.66;100303.57;111685;1206;112143;-70
2023/12/31 10:55:16;;;;;;;24.70;12.60;;;;;;;4.75;89.72;100299.77;111780;1209;99081;-70
2023/12/31 10:57:42;;;;;;;23.60;12.40;;;;;;;4.78;89.78;100298.64;111500;1206;138943;-70
2023/12/31 11:00:13;;;;;;;32.60;13.20;;;;;;;4.80;89.74;100292.02;111703;1206;98949;-69
2023/12/31 11:02:40;;;;;;;27.40;12.60;;;;;;;4.83;89.80;100285.05;111597;1208;138797;-70